Time;durP1;ratioP1;P1;durP2;ratioP2;P2;SDS_P1;SDS_P2;PMS_P1;PMS_P2;Temp;Humidity;BMP_temperature;BMP_pressure;BME280_temperature;BME280_humidity;BME280_pressure;Samples;Min_cycle;Max_cycle;Signal;HPM_P1;HPM_P2
2021/01/28 00:01:24;;;;;;;0.10;0.10;;;;;;;5.52;100.00;98857.84;5001715;28;20545;-80
2021/01/28 00:04:28;;;;;;;0.10;0.00;;;;;;;5.49;100.00;98840.22;5013333;28;20045;-81
2021/01/28 00:07:31;;;;;;;0.10;0.00;;;;;;;5.50;100.00;98833.44;5001111;28;20060;-81
2021/01/28 00:10:36;;;;;;;0.10;0.00;;;;;;;5.54;100.00;98823.03;5013361;28;20041;-80
2021/01/28 00:13:39;;;;;;;0.10;0.00;;;;;;;5.52;100.00;98816.44;5013564;28;20053;-81
2021/01/28 00:16:43;;;;;;;0.10;0.10;;;;;;;5.50;100.00;98808.59;5007641;28;20053;-82
2021/01/28 00:19:46;;;;;;;0.10;0.10;;;;;;;5.49;100.00;98801.56;5033279;28;20405;-82
2021/01/28 00:22:49;;;;;;;0.10;0.00;;;;;;;5.48;100.00;98791.72;5033005;28;20528;-81
2021/01/28 00:25:53;;;;;;;0.10;0.00;;;;;;;5.49;100.00;98790.50;5033072;28;20109;-81
2021/01/28 00:28:56;;;;;;;0.00;0.00;;;;;;;5.48;100.00;98794.50;5020999;28;20048;-81
2021/01/28 00:32:00;;;;;;;0.10;0.00;;;;;;;5.49;100.00;98790.50;5033321;28;20044;-80
2021/01/28 00:35:06;;;;;;;0.10;0.10;;;;;;;5.48;100.00;98783.44;5020918;28;20048;-82
2021/01/28 00:38:26;;;;;;;0.10;0.00;;;;;;;5.50;100.00;98769.94;5033159;28;20067;-81
2021/01/28 00:41:29;;;;;;;0.13;0.05;;;;;;;5.52;100.00;98756.47;5032686;28;20488;-80
2021/01/28 00:44:33;;;;;;;0.10;0.00;;;;;;;5.53;100.00;98746.94;5033208;28;20048;-81
2021/01/28 00:47:36;;;;;;;0.00;0.00;;;;;;;5.57;100.00;98730.19;5020713;28;20060;-81
2021/01/28 00:50:41;;;;;;;0.10;0.00;;;;;;;5.57;100.00;98736.47;5033077;28;20060;-81
2021/01/28 00:53:45;;;;;;;0.10;0.00;;;;;;;5.60;100.00;98727.25;5032854;28;20052;-81
2021/01/28 00:56:48;;;;;;;0.00;0.00;;;;;;;5.59;100.00;98717.44;5032483;28;20056;-79
2021/01/28 00:59:51;;;;;;;0.00;0.00;;;;;;;5.62;100.00;98699.94;5032629;28;20052;-81
2021/01/28 01:02:56;;;;;;;0.00;0.00;;;;;;;5.60;100.00;98693.34;5032783;28;20044;-81
2021/01/28 01:05:59;;;;;;;0.00;0.00;;;;;;;5.56;100.00;98685.25;5032957;28;20082;-79
2021/01/28 01:09:03;;;;;;;0.00;0.00;;;;;;;5.56;100.00;98671.44;5032324;28;20052;-80
2021/01/28 01:12:07;;;;;;;0.10;0.00;;;;;;;5.57;100.00;98658.38;5032488;28;20517;-79
2021/01/28 01:15:10;;;;;;;0.00;0.00;;;;;;;5.55;100.00;98656.09;5032755;28;20524;-80
2021/01/28 01:18:17;;;;;;;0.10;0.00;;;;;;;5.57;100.00;98663.91;5032333;28;20682;-78
2021/01/28 01:21:20;;;;;;;0.10;0.00;;;;;;;5.61;100.00;98676.31;5032315;28;20045;-77
2021/01/28 01:24:24;;;;;;;0.10;0.00;;;;;;;5.59;100.00;98687.06;5032281;28;20076;-78
2021/01/28 01:27:27;;;;;;;0.10;0.00;;;;;;;5.62;100.00;98672.31;5032232;28;20053;-78
2021/01/28 01:30:32;;;;;;;0.10;0.00;;;;;;;5.60;100.00;98651.94;5032247;28;20049;-78
2021/01/28 01:33:35;;;;;;;0.10;0.00;;;;;;;5.57;100.00;98645.34;5032166;28;20048;-78
2021/01/28 01:36:38;;;;;;;0.10;0.00;;;;;;;5.57;100.00;98642.59;5032513;28;20052;-78
2021/01/28 01:39:42;;;;;;;0.10;0.00;;;;;;;5.57;100.00;98626.00;5031456;28;20048;-78
2021/01/28 01:42:50;;;;;;;0.10;0.00;;;;;;;5.55;100.00;98611.91;5032148;28;20061;-79
2021/01/28 01:45:59;;;;;;;0.10;0.10;;;;;;;5.54;100.00;98610.41;5031135;28;20571;-79
2021/01/28 01:49:09;;;;;;;0.10;0.00;;;;;;;5.54;100.00;98598.59;5031892;28;20052;-79
2021/01/28 01:52:14;;;;;;;0.10;0.00;;;;;;;5.52;100.00;98590.78;5032265;28;20048;-80
2021/01/28 01:55:18;;;;;;;0.10;0.10;;;;;;;5.49;100.00;98580.69;5035549;28;20513;-80
2021/01/28 01:58:32;;;;;;;0.10;0.10;;;;;;;5.48;100.00;98573.63;5036054;28;20048;-80
2021/01/28 02:01:41;;;;;;;0.10;0.10;;;;;;;5.50;100.00;98573.91;5035918;28;20168;-81
2021/01/28 02:04:48;;;;;;;0.00;0.00;;;;;;;5.49;100.00;98553.06;5035733;28;20053;-80
2021/01/28 02:07:51;;;;;;;0.10;0.00;;;;;;;5.50;100.00;98553.84;5035737;28;20048;-80
2021/01/28 02:10:55;;;;;;;0.10;0.00;;;;;;;5.46;100.00;98537.44;5035562;28;20060;-80
2021/01/28 02:14:01;;;;;;;0.10;0.00;;;;;;;5.47;100.00;98538.97;5035211;28;20508;-81
2021/01/28 02:17:15;;;;;;;0.10;0.00;;;;;;;5.45;100.00;98530.41;5022877;28;20413;-80
2021/01/28 02:20:53;;;;;;;0.05;0.05;;;;;;;5.45;100.00;98518.59;5023205;28;20041;-80
2021/01/28 02:24:22;;;;;;;0.10;0.00;;;;;;;5.44;100.00;98506.78;5035306;28;20398;-81
2021/01/28 02:27:27;;;;;;;0.10;0.00;;;;;;;5.43;100.00;98488.72;5035852;28;20057;-80
2021/01/28 02:30:34;;;;;;;0.00;0.00;;;;;;;5.47;100.00;98494.81;5035163;28;20405;-79
2021/01/28 02:33:49;;;;;;;0.10;0.10;;;;;;;5.46;100.00;98476.69;5035179;28;20683;-80
2021/01/28 02:36:54;;;;;;;0.05;0.00;;;;;;;5.48;100.00;98452.13;5034978;28;20056;-80
2021/01/28 02:39:57;;;;;;;0.10;0.10;;;;;;;5.47;100.00;98434.06;5035087;28;20508;-78
2021/01/28 02:43:01;;;;;;;0.10;0.00;;;;;;;5.45;100.00;98430.25;5035057;28;20041;-80
2021/01/28 02:46:10;;;;;;;0.10;0.00;;;;;;;5.45;100.00;98425.50;5034250;28;20040;-80
2021/01/28 02:49:19;;;;;;;0.00;0.00;;;;;;;5.46;100.00;98410.44;5031704;28;20045;-80
2021/01/28 02:52:22;;;;;;;0.10;0.00;;;;;;;5.46;100.00;98391.13;5034139;28;20052;-79
2021/01/28 02:55:32;;;;;;;0.10;0.00;;;;;;;5.46;100.00;98395.91;5021791;28;20508;-80
2021/01/28 02:58:36;;;;;;;0.10;0.03;;;;;;;5.46;100.00;98390.38;5022026;28;20056;-80
2021/01/28 03:01:39;;;;;;;0.10;0.00;;;;;;;5.43;100.00;98372.75;5021875;28;20040;-80
2021/01/28 03:04:43;;;;;;;0.00;0.00;;;;;;;5.44;100.00;98357.72;5033869;28;20071;-79
2021/01/28 03:07:47;;;;;;;0.08;0.00;;;;;;;5.42;100.00;98343.63;5034054;28;20109;-81
2021/01/28 03:10:52;;;;;;;0.10;0.00;;;;;;;5.40;100.00;98340.59;5034335;28;20406;-80
2021/01/28 03:13:55;;;;;;;0.10;0.00;;;;;;;5.39;100.00;98339.81;5034553;28;20044;-80
2021/01/28 03:16:59;;;;;;;0.10;0.10;;;;;;;5.38;100.00;98343.81;5032600;28;20076;-80
2021/01/28 03:20:08;;;;;;;0.10;0.00;;;;;;;5.39;100.00;98322.50;5034388;28;20045;-79
2021/01/28 03:23:13;;;;;;;0.10;0.00;;;;;;;5.37;100.00;98319.47;5032997;28;20044;-80
2021/01/28 03:26:16;;;;;;;0.10;0.10;;;;;;;5.37;100.00;98302.91;5033819;28;20064;-79
2021/01/28 03:29:19;;;;;;;0.05;0.00;;;;;;;5.35;100.00;98305.34;5033660;28;20048;-79
2021/01/28 03:32:23;;;;;;;0.00;0.00;;;;;;;5.36;100.00;98291.09;5034434;28;20048;-79
2021/01/28 03:35:28;;;;;;;0.13;0.13;;;;;;;5.37;100.00;98286.34;5033949;28;20045;-79
2021/01/28 03:38:31;;;;;;;0.10;0.00;;;;;;;5.38;100.00;98280.34;5033330;28;20113;-79
2021/01/28 03:41:35;;;;;;;0.00;0.00;;;;;;;5.41;100.00;98275.88;5021948;28;20508;-80
2021/01/28 03:44:38;;;;;;;0.10;0.00;;;;;;;5.42;100.00;98277.38;5034155;28;20045;-80
2021/01/28 03:47:42;;;;;;;0.00;0.00;;;;;;;5.41;100.00;98284.16;5032517;28;20041;-80
2021/01/28 03:50:46;;;;;;;0.10;0.10;;;;;;;5.41;100.00;98281.38;5033811;28;20060;-80
2021/01/28 03:53:49;;;;;;;0.10;0.00;;;;;;;5.40;100.00;98296.41;5033606;28;20048;-80
2021/01/28 03:56:52;;;;;;;0.10;0.10;;;;;;;5.39;100.00;98308.72;5034563;28;20049;-81
2021/01/28 03:59:56;;;;;;;0.10;0.00;;;;;;;5.39;100.00;98294.91;5033310;28;20068;-81
2021/01/28 04:03:01;;;;;;;0.10;0.10;;;;;;;5.36;100.00;98287.56;5033619;28;20044;-80
2021/01/28 04:06:04;;;;;;;0.10;0.00;;;;;;;5.34;100.00;98287.28;5033597;28;20049;-80
2021/01/28 04:09:08;;;;;;;0.10;0.00;;;;;;;5.30;100.00;98270.94;5033820;28;20064;-81
2021/01/28 04:12:11;;;;;;;0.10;0.00;;;;;;;5.28;100.00;98256.09;5033535;28;20504;-80
2021/01/28 04:15:16;;;;;;;0.10;0.10;;;;;;;5.30;100.00;98273.69;5033537;28;20505;-81
2021/01/28 04:18:20;;;;;;;0.00;0.00;;;;;;;5.28;100.00;98261.63;5033491;28;20461;-79
2021/01/28 04:21:23;;;;;;;0.00;0.00;;;;;;;5.30;100.00;98253.63;5033572;28;20481;-79
2021/01/28 04:24:26;;;;;;;0.10;0.10;;;;;;;5.29;100.00;98255.59;5033505;28;20048;-80
2021/01/28 04:27:30;;;;;;;0.10;0.10;;;;;;;5.27;100.00;98246.28;5032928;28;20690;-81
2021/01/28 04:30:34;;;;;;;0.10;0.00;;;;;;;5.26;100.00;98242.75;5033135;28;20126;-81
2021/01/28 04:33:37;;;;;;;0.10;0.00;;;;;;;5.25;100.00;98241.25;5032968;28;20049;-80
2021/01/28 04:36:41;;;;;;;0.10;0.10;;;;;;;5.26;100.00;98228.94;5030723;28;20044;-81
2021/01/28 04:39:44;;;;;;;0.10;0.00;;;;;;;5.25;100.00;98216.41;5032241;28;20044;-82
2021/01/28 04:42:48;;;;;;;0.10;0.10;;;;;;;5.24;100.00;98216.91;5032077;28;20532;-81
2021/01/28 04:45:58;;;;;;;0.10;0.10;;;;;;;5.24;100.00;98211.38;5032256;28;20117;-81
2021/01/28 04:49:06;;;;;;;0.10;0.00;;;;;;;5.26;100.00;98206.13;5020323;28;20052;-82
2021/01/28 04:52:12;;;;;;;0.10;0.00;;;;;;;5.23;100.00;98202.34;5032610;28;20052;-79
2021/01/28 04:55:16;;;;;;;0.10;0.10;;;;;;;5.25;100.00;98197.09;5019956;28;20410;-80
2021/01/28 04:58:21;;;;;;;0.10;0.00;;;;;;;5.23;100.00;98193.28;5032941;28;20048;-81
2021/01/28 05:01:30;;;;;;;0.10;0.00;;;;;;;5.23;100.00;98176.72;5032761;28;20068;-80
2021/01/28 05:04:41;;;;;;;0.10;0.10;;;;;;;5.21;100.00;98170.94;5032999;28;20037;-81
2021/01/28 05:07:46;;;;;;;0.10;0.10;;;;;;;5.23;100.00;98171.22;5032981;28;20140;-80
2021/01/28 05:10:57;;;;;;;0.10;0.00;;;;;;;5.23;100.00;98168.47;5033208;28;20639;-80
2021/01/28 05:14:21;;;;;;;0.10;0.00;;;;;;;5.23;100.00;98157.41;5032874;28;20528;-81
2021/01/28 05:17:29;;;;;;;0.10;0.00;;;;;;;5.23;100.00;98162.94;5032017;28;20476;-81
2021/01/28 05:20:32;;;;;;;0.10;0.00;;;;;;;5.25;100.00;98152.19;5031757;28;20048;-81
2021/01/28 05:23:39;;;;;;;0.00;0.00;;;;;;;5.27;100.00;98138.66;5032009;28;20063;-82
2021/01/28 05:26:43;;;;;;;0.10;0.00;;;;;;;5.28;100.00;98140.19;5031956;28;20060;-80
2021/01/28 05:29:47;;;;;;;0.00;0.00;;;;;;;5.28;100.00;98129.16;5019838;28;20504;-79
2021/01/28 05:32:50;;;;;;;0.10;0.10;;;;;;;5.27;100.00;98116.56;5032108;28;20053;-80
2021/01/28 05:36:24;;;;;;;0.10;0.10;;;;;;;5.24;100.00;98114.78;5031798;28;20053;-80
2021/01/28 05:39:37;;;;;;;0.10;0.10;;;;;;;5.24;100.00;98106.53;5019829;28;20048;-81
2021/01/28 05:42:42;;;;;;;0.08;0.08;;;;;;;5.23;100.00;98099.47;5032149;28;20406;-81
2021/01/28 05:45:45;;;;;;;0.10;0.00;;;;;;;5.23;100.00;98097.47;5032194;28;20469;-81
2021/01/28 05:49:09;;;;;;;0.10;0.10;;;;;;;5.23;100.00;98104.97;5032334;28;20614;-82
2021/01/28 05:52:17;;;;;;;0.10;0.00;;;;;;;5.25;100.00;98096.97;5019869;28;20045;-80
2021/01/28 05:55:23;;;;;;;0.00;0.00;;;;;;;5.23;100.00;98082.91;5031905;28;20057;-80
2021/01/28 05:58:46;;;;;;;0.00;0.00;;;;;;;5.23;100.00;98083.69;5019727;28;20052;-80
2021/01/28 06:02:15;;;;;;;0.00;0.00;;;;;;;5.24;100.00;98089.97;5031884;28;20044;-79
2021/01/28 06:05:45;;;;;;;0.10;0.10;;;;;;;5.19;100.00;98096.91;5030622;28;20103;-80
2021/01/28 06:09:29;;;;;;;0.10;0.00;;;;;;;5.21;100.00;98113.00;5012700;28;20048;-80
2021/01/28 06:12:39;;;;;;;0.10;0.10;;;;;;;5.21;100.00;98085.41;5011480;28;20048;-81
2021/01/28 06:15:55;;;;;;;0.00;0.00;;;;;;;5.19;100.00;98087.88;5031460;28;20049;-79
2021/01/28 06:19:23;;;;;;;0.05;0.00;;;;;;;5.20;100.00;98075.59;5007183;28;20057;-79
2021/01/28 06:22:42;;;;;;;0.10;0.00;;;;;;;5.22;100.00;98081.38;5011706;28;20505;-80
2021/01/28 06:26:03;;;;;;;0.05;0.00;;;;;;;5.22;100.00;98090.44;5011010;28;20046;-79
2021/01/28 06:29:07;;;;;;;;;;;;;;;5.23;100.00;98099.47;5012103;28;20056;-80
2021/01/28 06:32:41;;;;;;;0.10;0.10;;;;;;;5.23;100.00;98119.56;5012034;28;19913;-80
2021/01/28 06:36:04;;;;;;;0.10;0.10;;;;;;;5.22;100.00;98120.78;5006970;28;20409;-80
2021/01/28 06:39:30;;;;;;;0.10;0.00;;;;;;;5.22;100.00;98108.97;4992084;28;20387;-79
2021/01/28 06:42:46;;;;;;;0.10;0.10;;;;;;;5.21;100.00;98102.72;4995902;28;20049;-80
2021/01/28 06:45:58;;;;;;;0.10;0.10;;;;;;;5.20;100.00;98100.41;4995499;28;20414;-80
2021/01/28 06:49:14;;;;;;;0.10;0.00;;;;;;;5.18;100.00;98103.66;4995880;28;20054;-79
2021/01/28 06:52:34;;;;;;;0.10;0.00;;;;;;;5.17;100.00;98109.69;4995688;28;20065;-81
2021/01/28 06:56:05;;;;;;;0.10;0.03;;;;;;;5.17;100.00;98106.91;4995383;28;20069;-80
2021/01/28 06:59:45;;;;;;;0.10;0.10;;;;;;;5.18;100.00;98113.94;4991925;28;20057;-80
2021/01/28 07:03:01;;;;;;;0.10;0.00;;;;;;;5.18;100.00;98109.19;4995271;28;20048;-80
2021/01/28 07:06:10;;;;;;;0.10;0.10;;;;;;;5.17;100.00;98106.91;4995335;28;20049;-80
2021/01/28 07:09:30;;;;;;;0.10;0.00;;;;;;;5.16;100.00;98116.41;4995311;28;20045;-80
2021/01/28 07:12:38;;;;;;;0.10;0.10;;;;;;;5.18;100.00;98116.69;4995277;28;20051;-80
2021/01/28 07:15:47;;;;;;;0.10;0.03;;;;;;;5.18;100.00;98097.38;4995698;28;20058;-79
2021/01/28 07:18:54;;;;;;;0.10;0.00;;;;;;;5.18;100.00;98100.91;4994560;28;20049;-79
2021/01/28 07:22:15;;;;;;;0.10;0.00;;;;;;;5.22;100.00;98108.97;5003368;28;20053;-79
2021/01/28 07:25:35;;;;;;;0.10;0.10;;;;;;;5.21;100.00;98101.94;5014517;28;20041;-78
2021/01/28 07:28:41;;;;;;;0.10;0.10;;;;;;;5.23;100.00;98102.22;5014493;28;20465;-78
2021/01/28 07:31:47;;;;;;;0.10;0.00;;;;;;;5.22;100.00;98098.69;5014441;28;20045;-79
2021/01/28 07:35:24;;;;;;;0.10;0.10;;;;;;;5.23;100.00;98107.75;5007882;28;20041;-79
2021/01/28 07:38:28;;;;;;;0.10;0.10;;;;;;;5.23;100.00;98105.75;5033459;28;20052;-79
2021/01/28 07:41:38;;;;;;;0.10;0.10;;;;;;;5.23;100.00;98116.03;5033444;28;20064;-79
2021/01/28 07:44:48;;;;;;;0.10;0.10;;;;;;;5.22;100.00;98114.50;5033177;28;20056;-79
2021/01/28 07:47:54;;;;;;;0.10;0.00;;;;;;;5.21;100.00;98113.00;5033197;28;20045;-79
2021/01/28 07:51:28;;;;;;;0.10;0.00;;;;;;;5.21;100.00;98118.50;5032650;28;20045;-79
2021/01/28 07:54:37;;;;;;;0.00;0.00;;;;;;;5.22;100.00;98126.28;5020980;28;20053;-78
2021/01/28 07:57:43;;;;;;;0.05;0.00;;;;;;;5.21;100.00;98124.03;5033570;28;20394;-79
2021/01/28 08:00:47;;;;;;;0.10;0.10;;;;;;;5.20;100.00;98128.78;5033640;28;20406;-78
2021/01/28 08:03:57;;;;;;;0.10;0.00;;;;;;;5.20;100.00;98120.50;5021502;28;20052;-79
2021/01/28 08:07:04;;;;;;;0.10;0.00;;;;;;;5.21;100.00;98135.06;5032552;28;20116;-79
2021/01/28 08:10:30;;;;;;;0.10;0.10;;;;;;;5.20;100.00;98139.81;5032699;28;20064;-79
2021/01/28 08:13:34;;;;;;;0.10;0.00;;;;;;;5.22;100.00;98142.09;5032607;28;20519;-78
2021/01/28 08:16:38;;;;;;;0.10;0.10;;;;;;;5.24;100.00;98145.16;5014815;28;20064;-78
2021/01/28 08:19:42;;;;;;;0.10;0.00;;;;;;;5.26;100.00;98148.19;5000816;28;20048;-78
2021/01/28 08:23:04;;;;;;;0.00;0.00;;;;;;;5.27;100.00;98149.69;5000424;28;20045;-78
2021/01/28 08:26:31;;;;;;;0.00;0.00;;;;;;;5.28;100.00;98156.75;5001969;28;20045;-78
2021/01/28 08:29:35;;;;;;;0.10;0.10;;;;;;;5.27;100.00;98155.97;5005169;28;20048;-78
2021/01/28 08:32:39;;;;;;;0.00;0.00;;;;;;;5.29;100.00;98163.75;5013189;28;20517;-78
2021/01/28 08:35:47;;;;;;;0.00;0.00;;;;;;;5.34;100.00;98176.91;5016990;28;20053;-79
2021/01/28 08:39:11;;;;;;;0.05;0.00;;;;;;;5.32;100.00;98174.63;5032944;28;20397;-78
2021/01/28 08:42:19;;;;;;;0.10;0.10;;;;;;;5.32;100.00;98191.19;5032889;28;20524;-78
2021/01/28 08:45:29;;;;;;;0.00;0.00;;;;;;;5.32;100.00;98196.69;5032902;28;20036;-79
2021/01/28 08:48:33;;;;;;;0.10;0.10;;;;;;;5.33;100.00;98214.75;5032720;28;20052;-80
2021/01/28 08:51:40;;;;;;;0.10;0.00;;;;;;;5.33;100.00;98225.03;5032763;28;20044;-79
2021/01/28 08:54:46;;;;;;;0.10;0.00;;;;;;;5.33;100.00;98236.84;5033089;28;20057;-80
2021/01/28 08:57:51;;;;;;;0.00;0.00;;;;;;;5.34;100.00;98226.56;5033071;28;20397;-78
2021/01/28 09:01:00;;;;;;;0.10;0.10;;;;;;;5.38;100.00;98229.88;5032562;28;20114;-78
2021/01/28 09:04:11;;;;;;;0.10;0.00;;;;;;;5.47;100.00;98235.28;5032022;28;20513;-78
2021/01/28 09:08:00;;;;;;;0.10;0.00;;;;;;;5.52;100.00;98231.88;5032761;28;20044;-77
2021/01/28 09:11:16;;;;;;;0.10;0.00;;;;;;;5.54;100.00;98237.66;5032827;28;20048;-78
2021/01/28 09:14:34;;;;;;;0.10;0.00;;;;;;;5.54;100.00;98248.72;5032563;28;20052;-79
2021/01/28 09:17:38;;;;;;;0.10;0.00;;;;;;;5.55;100.00;98258.50;5032882;28;20052;-78
2021/01/28 09:20:42;;;;;;;0.10;0.00;;;;;;;5.60;100.00;98260.59;5032306;28;20048;-79
2021/01/28 09:24:00;;;;;;;0.00;0.00;;;;;;;5.66;100.00;98266.94;5031760;28;20048;-79
2021/01/28 09:27:15;;;;;;;0.10;0.00;;;;;;;5.72;100.00;98258.72;5032397;28;20393;-79
2021/01/28 09:30:24;;;;;;;0.10;0.10;;;;;;;5.76;100.00;98262.06;5032462;28;20420;-79
2021/01/28 09:33:37;;;;;;;0.10;0.10;;;;;;;5.79;100.00;98264.59;5032507;28;20049;-79
2021/01/28 09:36:42;;;;;;;0.10;0.00;;;;;;;5.82;100.00;98266.41;5030824;28;20060;-79
2021/01/28 09:39:48;;;;;;;0.10;0.00;;;;;;;5.89;100.00;98248.72;5032770;28;20057;-79
2021/01/28 09:43:15;;;;;;;0.10;0.10;;;;;;;6.02;100.00;98254.66;5031224;28;20056;-81
2021/01/28 09:46:18;;;;;;;0.10;0.00;;;;;;;6.13;100.00;98251.25;5031658;28;20048;-80
2021/01/28 09:49:22;;;;;;;0.03;0.00;;;;;;;6.22;100.00;98254.63;5032178;28;20049;-79
2021/01/28 09:52:37;;;;;;;0.10;0.00;;;;;;;6.31;100.00;98260.00;5031473;28;20056;-79
2021/01/28 09:55:41;;;;;;;0.00;0.00;;;;;;;6.42;100.00;98251.84;5031162;28;20049;-79
2021/01/28 09:58:44;;;;;;;0.05;0.00;;;;;;;6.50;100.00;98246.63;5031399;28;20049;-79
2021/01/28 10:01:48;;;;;;;0.10;0.00;;;;;;;6.60;100.00;98259.06;5031642;28;20500;-79
2021/01/28 10:04:51;;;;;;;0.10;0.00;;;;;;;6.69;100.00;98264.47;5019156;28;20064;-80
2021/01/28 10:07:55;;;;;;;0.05;0.00;;;;;;;6.79;100.00;98263.81;5031678;28;20393;-78
2021/01/28 10:10:58;;;;;;;0.10;0.10;;;;;;;6.92;100.00;98266.19;5031404;28;20453;-79
2021/01/28 10:14:02;;;;;;;0.10;0.00;;;;;;;7.03;100.00;98259.97;5032181;28;20044;-79
2021/01/28 10:17:06;;;;;;;0.10;0.10;;;;;;;7.10;100.00;98267.84;5023453;28;20045;-80
2021/01/28 10:20:10;;;;;;;0.00;0.00;;;;;;;7.08;100.00;98273.84;5035748;28;20048;-79
2021/01/28 10:23:14;;;;;;;0.00;0.00;;;;;;;7.16;100.00;98286.03;5023852;28;20048;-78
2021/01/28 10:26:18;;;;;;;0.00;0.00;;;;;;;7.28;100.00;98276.53;5035585;28;20401;-79
2021/01/28 10:29:21;;;;;;;0.10;0.00;;;;;;;7.46;100.00;98278.97;5035631;28;20052;-78
2021/01/28 10:32:25;;;;;;;0.10;0.00;;;;;;;7.65;100.00;98271.03;5035189;28;20064;-79
2021/01/28 10:35:31;;;;;;;0.10;0.00;;;;;;;7.94;100.00;98270.69;5034815;28;20044;-78
2021/01/28 10:38:35;;;;;;;0.00;0.00;;;;;;;8.10;100.00;98258.19;5032464;28;20056;-78
2021/01/28 10:42:07;;;;;;;0.00;0.00;;;;;;;8.30;100.00;98269.88;5031590;28;20125;-78
2021/01/28 10:45:14;;;;;;;0.00;0.00;;;;;;;8.36;100.00;98272.66;5034346;28;20048;-78
2021/01/28 10:48:18;;;;;;;0.00;0.00;;;;;;;8.44;100.00;98279.25;5042216;28;20130;-79
2021/01/28 10:51:22;;;;;;;0.10;0.00;;;;;;;8.63;100.00;98280.31;5040141;28;20414;-79
2021/01/28 10:54:25;;;;;;;0.00;0.00;;;;;;;8.73;100.00;98283.63;5027643;28;20045;-80
2021/01/28 10:57:28;;;;;;;0.00;0.00;;;;;;;8.74;100.00;98285.91;5035649;28;20056;-79
2021/01/28 11:00:33;;;;;;;0.00;0.00;;;;;;;8.80;100.00;98289.44;5034542;28;20049;-78
2021/01/28 11:03:37;;;;;;;0.00;0.00;;;;;;;8.92;100.00;98287.47;5034869;28;20531;-78
2021/01/28 11:06:40;;;;;;;0.00;0.00;;;;;;;9.01;100.00;98276.84;5037761;28;20044;-78
2021/01/28 11:09:44;;;;;;;0.00;0.00;;;;;;;9.15;100.00;98289.75;5034410;28;20048;-79
2021/01/28 11:12:47;;;;;;;0.00;0.00;;;;;;;9.16;100.00;98287.72;5034252;28;20052;-79
2021/01/28 11:15:51;;;;;;;0.00;0.00;;;;;;;9.17;100.00;98289.25;5034125;28;20053;-78
2021/01/28 11:18:57;;;;;;;0.10;0.00;;;;;;;9.12;100.00;98282.44;5033277;28;20053;-78
2021/01/28 11:22:00;;;;;;;0.05;0.00;;;;;;;9.05;100.00;98282.19;5033863;28;20044;-79
2021/01/28 11:25:06;;;;;;;0.00;0.00;;;;;;;9.04;100.00;98286.97;5030166;28;20048;-78
2021/01/28 11:28:09;;;;;;;0.00;0.00;;;;;;;9.05;100.00;98288.47;5033466;28;20056;-79
2021/01/28 11:31:13;;;;;;;0.10;0.10;;;;;;;9.06;100.00;98286.47;5033445;28;20105;-78
2021/01/28 11:34:17;;;;;;;0.00;0.00;;;;;;;9.09;100.00;98275.13;5014220;28;20045;-78
2021/01/28 11:37:20;;;;;;;0.00;0.00;;;;;;;9.18;100.00;98285.97;4996679;28;20058;-77
2021/01/28 11:40:26;;;;;;;0.05;0.00;;;;;;;9.24;100.00;98288.00;4994580;28;20065;-78
2021/01/28 11:43:31;;;;;;;0.00;0.00;;;;;;;9.24;100.00;98297.09;4994736;28;20219;-77
2021/01/28 11:46:34;;;;;;;0.00;0.00;;;;;;;9.26;100.00;98307.69;4994568;28;20049;-79
2021/01/28 11:49:37;;;;;;;0.00;0.00;;;;;;;9.22;100.00;98307.19;4994271;28;20156;-79
2021/01/28 11:52:41;;;;;;;0.00;0.00;;;;;;;9.22;100.00;98304.41;4994104;28;20053;-79
2021/01/28 11:55:44;;;;;;;0.00;0.00;;;;;;;9.16;100.00;98318.28;4994012;28;20046;-79
2021/01/28 11:58:48;;;;;;;0.10;0.10;;;;;;;9.12;100.00;98315.75;4994656;28;20057;-79
2021/01/28 12:01:52;;;;;;;0.10;0.00;;;;;;;9.04;100.00;98325.84;4994725;28;20049;-79
2021/01/28 12:04:57;;;;;;;0.00;0.00;;;;;;;8.96;100.00;98341.47;4989503;28;20049;-80
2021/01/28 12:08:00;;;;;;;0.00;0.00;;;;;;;8.91;100.00;98345.00;4995140;28;20049;-80
2021/01/28 12:11:07;;;;;;;0.00;0.00;;;;;;;8.90;100.00;98351.06;4992914;28;20052;-80
2021/01/28 12:14:11;;;;;;;0.10;0.10;;;;;;;8.84;100.00;98351.03;4982458;28;20072;-78
2021/01/28 12:17:14;;;;;;;0.00;0.00;;;;;;;8.83;100.00;98343.22;4981921;28;20054;-78
2021/01/28 12:20:30;;;;;;;0.00;0.00;;;;;;;8.89;100.00;98341.97;4995663;28;20049;-77
2021/01/28 12:23:34;;;;;;;0.00;0.00;;;;;;;8.90;100.00;98332.34;4994452;28;20057;-78
2021/01/28 12:26:37;;;;;;;0.00;0.00;;;;;;;8.98;100.00;98329.88;4993996;28;20053;-78
2021/01/28 12:29:41;;;;;;;0.10;0.00;;;;;;;9.01;100.00;98328.84;4993901;28;20057;-79
2021/01/28 12:32:45;;;;;;;0.00;0.00;;;;;;;8.99;100.00;98328.59;5000713;28;20058;-79
2021/01/28 12:35:48;;;;;;;0.03;0.00;;;;;;;8.96;100.00;98324.81;5013044;28;20069;-79
2021/01/28 12:38:51;;;;;;;0.10;0.00;;;;;;;8.95;100.00;98314.97;5012315;28;20053;-79
2021/01/28 12:41:55;;;;;;;0.00;0.00;;;;;;;8.98;100.00;98321.53;5013469;28;20045;-79
2021/01/28 12:45:00;;;;;;;0.00;0.00;;;;;;;9.01;100.00;98315.72;5013487;28;20048;-79
2021/01/28 12:48:03;;;;;;;0.00;0.00;;;;;;;9.07;100.00;98307.44;5013606;28;20045;-79
2021/01/28 12:51:07;;;;;;;0.10;0.00;;;;;;;9.07;100.00;98319.28;5014705;28;20053;-79
2021/01/28 12:54:10;;;;;;;0.00;0.00;;;;;;;9.08;100.00;98320.78;5013247;28;20060;-79
2021/01/28 12:57:13;;;;;;;0.00;0.00;;;;;;;9.09;100.00;98316.78;5002064;28;20052;-78
2021/01/28 13:00:21;;;;;;;0.10;0.00;;;;;;;9.12;100.00;98317.75;5013194;28;20057;-80
2021/01/28 13:03:24;;;;;;;0.00;0.00;;;;;;;9.14;100.00;98318.78;5013191;28;20048;-80
2021/01/28 13:06:29;;;;;;;0.00;0.00;;;;;;;9.14;100.00;98318.78;5013789;28;20053;-78
2021/01/28 13:09:33;;;;;;;0.00;0.00;;;;;;;9.22;100.00;98321.84;5005404;28;20053;-82
2021/01/28 13:12:37;;;;;;;0.00;0.00;;;;;;;9.26;100.00;98324.34;5000270;28;20052;-80
2021/01/28 13:15:40;;;;;;;0.00;0.00;;;;;;;9.27;100.00;98314.78;5012643;28;20044;-80
2021/01/28 13:18:45;;;;;;;0.00;0.00;;;;;;;9.31;100.00;98310.47;5006490;28;20045;-79
2021/01/28 13:21:48;;;;;;;0.00;0.00;;;;;;;9.36;100.00;98295.81;5013477;28;20610;-79
2021/01/28 13:24:52;;;;;;;0.00;0.00;;;;;;;9.38;100.00;98303.63;5000991;28;20041;-79
2021/01/28 13:27:55;;;;;;;0.00;0.00;;;;;;;9.36;100.00;98290.25;5013043;28;20057;-79
2021/01/28 13:30:59;;;;;;;0.00;0.00;;;;;;;9.36;100.00;98300.63;5012508;28;20053;-80
2021/01/28 13:34:04;;;;;;;0.00;0.00;;;;;;;9.37;100.00;98300.13;5008408;28;20061;-80
2021/01/28 13:37:08;;;;;;;0.00;0.00;;;;;;;9.38;100.00;98309.97;5012938;28;20056;-79
2021/01/28 13:40:15;;;;;;;0.00;0.00;;;;;;;9.38;100.00;98306.41;5032157;28;20048;-80
2021/01/28 13:43:18;;;;;;;0.00;0.00;;;;;;;9.38;100.00;98303.63;5031990;28;20119;-80
2021/01/28 13:46:22;;;;;;;0.00;0.00;;;;;;;9.34;100.00;98300.34;5019844;28;20060;-80
2021/01/28 13:49:25;;;;;;;0.00;0.00;;;;;;;9.31;100.00;98304.16;5029027;28;20048;-78
2021/01/28 13:52:29;;;;;;;0.00;0.00;;;;;;;9.25;100.00;98295.81;5036295;28;20533;-79
2021/01/28 13:55:33;;;;;;;0.00;0.00;;;;;;;9.20;100.00;98284.72;5036326;28;20049;-78
2021/01/28 13:58:36;;;;;;;0.00;0.00;;;;;;;9.15;100.00;98275.88;5036294;28;20048;-79
2021/01/28 14:01:40;;;;;;;0.00;0.00;;;;;;;9.10;100.00;98273.84;5035635;28;20635;-79
2021/01/28 14:04:44;;;;;;;0.00;0.00;;;;;;;9.09;100.00;98271.59;5034002;28;20044;-79
2021/01/28 14:07:47;;;;;;;0.00;0.00;;;;;;;9.03;100.00;98254.91;5031541;28;20090;-79
2021/01/28 14:10:51;;;;;;;0.00;0.00;;;;;;;8.98;100.00;98258.44;5037055;28;20048;-79
2021/01/28 14:13:55;;;;;;;0.00;0.00;;;;;;;8.96;100.00;98240.78;5036168;28;20045;-80
2021/01/28 14:16:58;;;;;;;0.00;0.00;;;;;;;8.99;100.00;98246.06;5023793;28;20052;-79
2021/01/28 14:20:04;;;;;;;0.00;0.00;;;;;;;9.01;100.00;98259.44;5035803;28;20532;-80
2021/01/28 14:23:08;;;;;;;0.00;0.00;;;;;;;9.15;100.00;98248.09;5026809;28;20041;-80
2021/01/28 14:26:11;;;;;;;0.00;0.00;;;;;;;9.32;100.00;98255.66;5036061;28;20647;-79
2021/01/28 14:29:14;;;;;;;0.00;0.00;;;;;;;9.50;100.00;98255.91;5023840;28;20056;-80
2021/01/28 14:32:19;;;;;;;0.00;0.00;;;;;;;9.71;100.00;98231.34;5035962;28;20068;-80
2021/01/28 14:35:22;;;;;;;0.03;0.00;;;;;;;9.82;100.00;98220.97;5022693;28;20052;-78
2021/01/28 14:38:26;;;;;;;0.10;0.00;;;;;;;9.91;100.00;98228.28;5023647;28;20052;-78
2021/01/28 14:41:30;;;;;;;0.00;0.00;;;;;;;9.99;100.00;98225.72;5035461;28;20064;-80
2021/01/28 14:44:34;;;;;;;0.00;0.00;;;;;;;10.05;100.00;98234.81;5035995;28;20057;-78